Time;durP1;ratioP1;P1;durP2;ratioP2;P2;SDS_P1;SDS_P2;PMS_P1;PMS_P2;Temp;Humidity;BMP_temperature;BMP_pressure;BME280_temperature;BME280_humidity;BME280_pressure;Samples;Min_cycle;Max_cycle;Signal;HPM_P1;HPM_P2
2023/05/07 00:00:47;;;;;;;;;;;13.60;99.90;;;;;;4968148;28;19921;-69
2023/05/07 00:03:13;;;;;;;;;;;13.60;99.90;;;;;;4970566;28;19950;-69
2023/05/07 00:05:39;;;;;;;;;;;13.60;99.90;;;;;;4963559;28;19918;-69
2023/05/07 00:08:04;;;;;;;;;;;13.60;99.90;;;;;;4966589;28;20644;-68
2023/05/07 00:10:30;;;;;;;;;;;13.60;99.90;;;;;;4968260;28;19969;-68
2023/05/07 00:12:55;;;;;;;;;;;13.70;99.90;;;;;;4970116;28;19968;-69
2023/05/07 00:15:21;;;;;;;;;;;13.70;99.90;;;;;;4964885;28;19934;-68
2023/05/07 00:17:47;;;;;;;;;;;13.70;99.90;;;;;;4968693;28;19922;-70
2023/05/07 00:20:12;;;;;;;;;;;13.70;99.90;;;;;;4965716;28;19933;-70
2023/05/07 00:22:38;;;;;;;;;;;13.70;99.90;;;;;;4969974;28;24079;-64
2023/05/07 00:25:03;;;;;;;;;;;13.70;99.90;;;;;;4959379;28;20446;-64
2023/05/07 00:27:29;;;;;;;;;;;13.70;99.90;;;;;;4966957;28;19919;-63
2023/05/07 00:29:54;;;;;;;;;;;13.80;99.90;;;;;;4969393;28;19921;-64
2023/05/07 00:32:20;;;;;;;;;;;13.70;99.90;;;;;;4974288;28;20001;-63
2023/05/07 00:34:46;;;;;;;;;;;13.70;99.90;;;;;;4970142;28;20915;-64
2023/05/07 00:37:11;;;;;;;;;;;13.70;99.90;;;;;;4971752;28;19976;-62
2023/05/07 00:39:37;;;;;;;;;;;13.70;99.90;;;;;;4966756;28;19918;-63
2023/05/07 00:42:02;;;;;;;;;;;13.70;99.90;;;;;;4975458;28;20012;-63
2023/05/07 00:44:28;;;;;;;;;;;13.50;99.90;;;;;;4962386;28;20389;-62
2023/05/07 00:46:54;;;;;;;;;;;13.40;99.90;;;;;;4963913;28;19948;-63
2023/05/07 00:49:19;;;;;;;;;;;13.40;99.90;;;;;;4969675;28;19965;-62
2023/05/07 00:51:45;;;;;;;;;;;13.40;99.90;;;;;;4964412;28;20050;-63
2023/05/07 00:54:11;;;;;;;;;;;13.40;99.90;;;;;;4968340;28;19983;-63
2023/05/07 00:56:36;;;;;;;;;;;13.50;99.90;;;;;;4952908;28;19966;-63
2023/05/07 00:59:02;;;;;;;;;;;13.50;99.90;;;;;;4964909;28;20777;-63
2023/05/07 01:01:28;;;;;;;;;;;13.50;99.90;;;;;;4965143;28;20081;-69
2023/05/07 01:03:53;;;;;;;;;;;13.60;99.90;;;;;;4971661;28;19922;-69
2023/05/07 01:06:21;;;;;;;;;;;13.60;99.90;;;;;;4965929;28;19926;-69
2023/05/07 01:08:47;;;;;;;;;;;13.50;99.90;;;;;;4968068;28;19921;-70
2023/05/07 01:11:13;;;;;;;;;;;13.60;99.90;;;;;;4968374;28;19918;-69
2023/05/07 01:13:39;;;;;;;;;;;13.60;99.90;;;;;;4964202;28;19953;-68
2023/05/07 01:16:05;;;;;;;;;;;13.50;99.90;;;;;;4958183;28;19966;-68
2023/05/07 01:18:30;;;;;;;;;;;13.30;99.90;;;;;;4964091;28;19922;-69
2023/05/07 01:20:58;;;;;;;;;;;13.40;99.90;;;;;;4967462;28;19930;-69
2023/05/07 01:23:23;;;;;;;;;;;13.40;99.90;;;;;;4964843;28;20475;-69
2023/05/07 01:25:52;;;;;;;;;;;13.30;99.90;;;;;;4960932;28;19933;-69
2023/05/07 01:28:18;;;;;;;;;;;13.20;99.90;;;;;;4969294;28;20409;-69
2023/05/07 01:30:46;;;;;;;;;;;13.30;99.90;;;;;;4965601;28;19913;-69
2023/05/07 01:33:14;;;;;;;;;;;13.40;99.90;;;;;;4970738;28;19949;-69
2023/05/07 01:35:45;;;;;;;;;;;13.40;99.90;;;;;;4970420;28;20050;-69
2023/05/07 01:38:11;;;;;;;;;;;13.30;99.90;;;;;;4969208;28;19946;-68
2023/05/07 01:40:36;;;;;;;;;;;13.30;99.90;;;;;;4970423;28;19959;-69
2023/05/07 01:43:02;;;;;;;;;;;13.40;99.90;;;;;;4970596;28;19992;-69
2023/05/07 01:45:28;;;;;;;;;;;13.40;99.90;;;;;;4961736;28;20373;-68
2023/05/07 01:47:54;;;;;;;;;;;13.20;99.90;;;;;;4965821;28;19944;-72
2023/05/07 01:50:20;;;;;;;;;;;13.10;99.90;;;;;;4970122;28;20405;-70
2023/05/07 01:52:47;;;;;;;;;;;13.10;99.90;;;;;;4968198;28;19942;-72
2023/05/07 01:55:13;;;;;;;;;;;13.20;99.90;;;;;;4961203;28;19986;-73
2023/05/07 01:57:38;;;;;;;;;;;13.20;99.90;;;;;;4958158;28;19988;-71
2023/05/07 02:00:05;;;;;;;;;;;13.10;99.90;;;;;;4970387;28;20038;-72
2023/05/07 02:02:30;;;;;;;;;;;13.10;99.90;;;;;;4972968;28;19933;-73
2023/05/07 02:04:56;;;;;;;;;;;13.10;99.90;;;;;;4970886;28;19942;-73
2023/05/07 02:07:22;;;;;;;;;;;13.10;99.90;;;;;;4972063;28;19947;-73
2023/05/07 02:09:47;;;;;;;;;;;13.10;99.90;;;;;;4968745;28;19918;-73
2023/05/07 02:12:13;;;;;;;;;;;13.10;99.90;;;;;;4968993;28;19950;-74
2023/05/07 02:14:38;;;;;;;;;;;13.10;99.90;;;;;;4971068;28;19938;-73
2023/05/07 02:17:04;;;;;;;;;;;13.20;99.90;;;;;;4998227;28;20334;-62
2023/05/07 02:19:29;;;;;;;;;;;13.30;99.90;;;;;;4970888;28;19966;-63
2023/05/07 02:21:55;;;;;;;;;;;13.20;99.90;;;;;;4970356;28;20676;-64
2023/05/07 02:24:20;;;;;;;;;;;13.20;99.90;;;;;;4969757;28;19947;-64
2023/05/07 02:26:46;;;;;;;;;;;13.30;99.90;;;;;;4964991;28;19949;-64
2023/05/07 02:29:12;;;;;;;;;;;13.30;99.90;;;;;;4964927;28;19960;-64
2023/05/07 02:31:37;;;;;;;;;;;13.40;99.90;;;;;;4976657;28;20021;-64
2023/05/07 02:34:03;;;;;;;;;;;13.50;99.90;;;;;;4970278;28;19982;-63
2023/05/07 02:36:29;;;;;;;;;;;13.50;99.90;;;;;;4968889;28;19947;-71
2023/05/07 02:38:54;;;;;;;;;;;13.60;99.90;;;;;;4969835;28;19997;-71
2023/05/07 02:41:20;;;;;;;;;;;13.60;99.90;;;;;;4970370;28;19922;-70
2023/05/07 02:43:46;;;;;;;;;;;13.70;99.90;;;;;;4969957;28;19925;-69
2023/05/07 02:46:11;;;;;;;;;;;13.70;99.90;;;;;;4967394;28;19968;-70
2023/05/07 02:48:37;;;;;;;;;;;13.80;99.90;;;;;;4968896;28;20294;-71
2023/05/07 02:51:03;;;;;;;;;;;13.80;99.90;;;;;;4972014;28;19951;-71
2023/05/07 02:53:29;;;;;;;;;;;13.80;99.90;;;;;;4970686;28;20375;-71
2023/05/07 02:55:59;;;;;;;;;;;13.90;99.90;;;;;;4969433;28;19926;-72
2023/05/07 02:58:25;;;;;;;;;;;13.90;99.90;;;;;;4965476;28;20037;-71
2023/05/07 03:00:50;;;;;;;;;;;14.00;99.90;;;;;;4966110;28;21241;-71
2023/05/07 03:03:16;;;;;;;;;;;14.10;99.90;;;;;;4975201;28;19980;-71
2023/05/07 03:05:41;;;;;;;;;;;14.20;99.90;;;;;;4971295;28;20338;-72
2023/05/07 03:08:07;;;;;;;;;;;14.30;99.90;;;;;;4974133;28;19914;-72
2023/05/07 03:10:33;;;;;;;;;;;14.30;99.90;;;;;;4971586;28;19922;-71
2023/05/07 03:12:58;;;;;;;;;;;14.40;99.90;;;;;;4969567;28;19922;-72
2023/05/07 03:15:24;;;;;;;;;;;14.40;99.90;;;;;;4965686;28;20021;-71
2023/05/07 03:17:49;;;;;;;;;;;14.60;99.90;;;;;;4969127;28;19928;-71
2023/05/07 03:20:15;;;;;;;;;;;14.60;99.90;;;;;;4970523;28;19929;-73
2023/05/07 03:22:40;;;;;;;;;;;14.70;99.90;;;;;;4973165;28;19918;-72
2023/05/07 03:25:06;;;;;;;;;;;14.70;99.90;;;;;;4970764;28;20316;-73
2023/05/07 03:27:32;;;;;;;;;;;14.70;99.90;;;;;;4959633;28;19922;-73
2023/05/07 03:29:59;;;;;;;;;;;14.70;99.90;;;;;;4966194;28;20587;-72
2023/05/07 03:32:25;;;;;;;;;;;14.80;99.90;;;;;;4967021;28;20726;-73
2023/05/07 03:34:50;;;;;;;;;;;14.80;99.90;;;;;;4970472;28;20463;-70
2023/05/07 03:37:16;;;;;;;;;;;14.80;99.90;;;;;;4970056;28;20464;-71
2023/05/07 03:39:41;;;;;;;;;;;14.80;99.90;;;;;;4971152;28;20425;-72
2023/05/07 03:42:07;;;;;;;;;;;14.80;99.90;;;;;;4966043;28;19925;-71
2023/05/07 03:44:32;;;;;;;;;;;14.80;99.90;;;;;;4966489;28;20405;-70
2023/05/07 03:46:58;;;;;;;;;;;14.80;99.90;;;;;;4965677;28;19928;-70
2023/05/07 03:49:23;;;;;;;;;;;14.70;99.90;;;;;;4969571;28;19960;-70
2023/05/07 03:51:49;;;;;;;;;;;14.70;99.90;;;;;;4969884;28;20570;-70
2023/05/07 03:54:14;;;;;;;;;;;14.70;99.90;;;;;;4973016;28;20354;-64
2023/05/07 03:56:40;;;;;;;;;;;14.60;99.90;;;;;;4960589;28;19984;-64
2023/05/07 03:59:05;;;;;;;;;;;14.50;99.90;;;;;;4970408;28;20401;-65
2023/05/07 04:01:31;;;;;;;;;;;14.40;99.90;;;;;;4966505;28;20460;-64
2023/05/07 04:03:56;;;;;;;;;;;14.40;99.90;;;;;;4973145;28;19921;-64
2023/05/07 04:06:22;;;;;;;;;;;14.40;99.90;;;;;;4973699;28;20013;-64
2023/05/07 04:08:47;;;;;;;;;;;14.40;99.90;;;;;;4969835;28;19976;-64
2023/05/07 04:11:13;;;;;;;;;;;14.50;99.90;;;;;;4971519;28;19922;-64
2023/05/07 04:13:39;;;;;;;;;;;14.50;99.90;;;;;;4959922;28;19922;-70
2023/05/07 04:16:05;;;;;;;;;;;14.50;99.90;;;;;;4969674;28;20217;-69
2023/05/07 04:18:31;;;;;;;;;;;14.50;99.90;;;;;;4972601;28;19997;-70
2023/05/07 04:20:56;;;;;;;;;;;14.60;99.90;;;;;;4970053;28;19979;-70
2023/05/07 04:23:22;;;;;;;;;;;14.60;99.90;;;;;;4971831;28;19918;-69
2023/05/07 04:25:47;;;;;;;;;;;14.60;99.90;;;;;;4968545;28;20032;-70
2023/05/07 04:28:12;;;;;;;;;;;14.60;99.90;;;;;;4963240;28;19925;-70
2023/05/07 04:30:38;;;;;;;;;;;14.60;99.90;;;;;;4971706;28;20552;-70
2023/05/07 04:33:04;;;;;;;;;;;14.50;99.90;;;;;;4971726;28;19981;-70
2023/05/07 04:35:29;;;;;;;;;;;14.40;99.90;;;;;;4970857;28;19922;-70
2023/05/07 04:37:55;;;;;;;;;;;14.30;99.90;;;;;;4974063;28;20004;-70
2023/05/07 04:40:20;;;;;;;;;;;14.30;99.90;;;;;;4972664;28;19921;-69
2023/05/07 04:42:46;;;;;;;;;;;14.40;99.90;;;;;;4969077;28;19968;-70
2023/05/07 04:45:12;;;;;;;;;;;14.30;99.90;;;;;;4965988;28;20840;-69
2023/05/07 04:47:38;;;;;;;;;;;14.40;99.90;;;;;;4966284;28;19910;-70
2023/05/07 04:50:04;;;;;;;;;;;14.40;99.90;;;;;;4970275;28;20560;-70
2023/05/07 04:52:29;;;;;;;;;;;14.40;99.90;;;;;;4971542;28;19957;-70
2023/05/07 04:54:55;;;;;;;;;;;14.50;99.90;;;;;;4963358;28;21579;-70
2023/05/07 04:57:21;;;;;;;;;;;14.60;99.90;;;;;;4958046;28;19937;-70
2023/05/07 04:59:46;;;;;;;;;;;14.60;99.90;;;;;;4968250;28;19918;-70
2023/05/07 05:02:12;;;;;;;;;;;14.70;99.90;;;;;;4967899;28;19922;-70
2023/05/07 05:04:37;;;;;;;;;;;14.80;99.90;;;;;;4966958;28;19922;-70
2023/05/07 05:07:06;;;;;;;;;;;14.80;99.90;;;;;;4966675;28;20394;-71
2023/05/07 05:09:31;;;;;;;;;;;14.90;99.90;;;;;;4965992;28;19918;-70
2023/05/07 05:11:57;;;;;;;;;;;15.00;99.90;;;;;;4970807;28;20361;-70
2023/05/07 05:14:22;;;;;;;;;;;15.00;99.90;;;;;;4965934;28;19941;-69
2023/05/07 05:16:48;;;;;;;;;;;15.10;99.90;;;;;;4967989;28;19926;-70
2023/05/07 05:19:13;;;;;;;;;;;15.10;99.90;;;;;;4967852;28;19918;-69
2023/05/07 05:21:39;;;;;;;;;;;15.20;99.90;;;;;;4971980;28;19922;-70
2023/05/07 05:24:04;;;;;;;;;;;15.20;99.90;;;;;;4966619;28;19920;-70
2023/05/07 05:26:30;;;;;;;;;;;15.30;99.90;;;;;;4967101;28;19922;-70
2023/05/07 05:28:55;;;;;;;;;;;15.40;99.90;;;;;;4960490;28;19922;-70
2023/05/07 05:31:21;;;;;;;;;;;15.60;99.90;;;;;;4972516;28;19922;-65
2023/05/07 05:33:46;;;;;;;;;;;15.70;99.90;;;;;;4971281;28;19922;-65
2023/05/07 05:36:13;;;;;;;;;;;15.70;99.90;;;;;;4968257;28;19926;-65
2023/05/07 05:38:38;;;;;;;;;;;15.80;99.90;;;;;;4968568;28;19922;-65
2023/05/07 05:41:04;;;;;;;;;;;15.90;99.90;;;;;;4975092;28;19995;-65
2023/05/07 05:43:30;;;;;;;;;;;16.00;99.90;;;;;;4970716;28;20306;-65
2023/05/07 05:45:55;;;;;;;;;;;16.00;99.90;;;;;;4973823;28;20271;-65
2023/05/07 05:48:21;;;;;;;;;;;16.00;99.90;;;;;;4973155;28;19976;-65
2023/05/07 05:50:46;;;;;;;;;;;16.00;99.90;;;;;;4974572;28;19950;-65
2023/05/07 05:53:12;;;;;;;;;;;16.10;99.90;;;;;;4975376;28;20013;-65
2023/05/07 05:55:37;;;;;;;;;;;16.10;99.90;;;;;;4970799;28;20282;-65
2023/05/07 05:58:03;;;;;;;;;;;16.20;99.90;;;;;;4963724;28;20540;-65
2023/05/07 06:00:29;;;;;;;;;;;16.30;99.90;;;;;;4964354;28;19930;-65
2023/05/07 06:02:54;;;;;;;;;;;16.40;99.90;;;;;;4971258;28;20628;-65
2023/05/07 06:05:20;;;;;;;;;;;16.50;99.90;;;;;;4964637;28;20578;-65
2023/05/07 06:07:46;;;;;;;;;;;16.60;99.90;;;;;;4962051;28;19929;-70
2023/05/07 06:10:11;;;;;;;;;;;16.70;99.90;;;;;;4975055;28;19949;-72
2023/05/07 06:12:37;;;;;;;;;;;16.70;99.90;;;;;;4968300;28;19919;-71
2023/05/07 06:15:03;;;;;;;;;;;16.90;99.90;;;;;;4970219;28;20469;-71
2023/05/07 06:17:28;;;;;;;;;;;17.00;99.90;;;;;;4974451;28;19933;-72
2023/05/07 06:19:54;;;;;;;;;;;17.20;99.90;;;;;;4970691;28;19917;-71
2023/05/07 06:22:19;;;;;;;;;;;17.40;99.90;;;;;;4968149;28;20026;-71
2023/05/07 06:24:45;;;;;;;;;;;17.60;99.90;;;;;;4967770;28;19914;-71
2023/05/07 06:27:11;;;;;;;;;;;17.70;99.90;;;;;;4979860;28;20342;-72
2023/05/07 06:29:37;;;;;;;;;;;17.80;99.90;;;;;;4960195;28;19921;-65
2023/05/07 06:32:08;;;;;;;;;;;17.80;99.90;;;;;;4969381;28;20643;-65
2023/05/07 06:34:34;;;;;;;;;;;17.80;99.90;;;;;;4970658;28;20433;-65
2023/05/07 06:36:59;;;;;;;;;;;17.80;99.90;;;;;;4963239;28;19930;-65
2023/05/07 06:39:25;;;;;;;;;;;17.90;99.90;;;;;;4966512;28;23533;-65
2023/05/07 06:41:50;;;;;;;;;;;18.10;99.90;;;;;;4974105;28;19925;-65
2023/05/07 06:44:16;;;;;;;;;;;18.10;99.90;;;;;;4971150;28;19914;-65
2023/05/07 06:46:42;;;;;;;;;;;18.20;99.90;;;;;;4971055;28;20430;-65
2023/05/07 06:49:07;;;;;;;;;;;18.30;99.90;;;;;;4969538;28;20723;-65
2023/05/07 06:51:33;;;;;;;;;;;18.40;99.90;;;;;;4969977;28;19918;-65
2023/05/07 06:53:58;;;;;;;;;;;18.50;99.90;;;;;;4972620;28;19918;-65
2023/05/07 06:56:24;;;;;;;;;;;18.60;99.90;;;;;;4971582;28;20516;-65
2023/05/07 06:58:50;;;;;;;;;;;18.70;99.90;;;;;;4960121;28;19949;-66
2023/05/07 07:01:15;;;;;;;;;;;18.80;99.90;;;;;;4966315;28;19925;-66
2023/05/07 07:03:41;;;;;;;;;;;18.90;99.90;;;;;;4959231;28;19922;-65
2023/05/07 07:06:06;;;;;;;;;;;19.00;99.90;;;;;;4963153;28;20517;-71
2023/05/07 07:08:32;;;;;;;;;;;19.20;99.90;;;;;;4958417;28;19918;-64
2023/05/07 07:10:57;;;;;;;;;;;19.20;99.90;;;;;;4969665;28;20064;-65
2023/05/07 07:13:23;;;;;;;;;;;19.30;99.90;;;;;;4966983;28;19921;-65
2023/05/07 07:15:48;;;;;;;;;;;19.40;99.90;;;;;;4964631;28;20021;-65
2023/05/07 07:18:15;;;;;;;;;;;19.50;99.90;;;;;;4968973;28;19925;-64
2023/05/07 07:20:40;;;;;;;;;;;19.50;99.90;;;;;;4962733;28;19925;-64
2023/05/07 07:23:06;;;;;;;;;;;19.60;99.90;;;;;;4965050;28;19919;-65
2023/05/07 07:25:31;;;;;;;;;;;19.70;99.90;;;;;;4971896;28;19949;-65
2023/05/07 07:27:57;;;;;;;;;;;19.80;99.90;;;;;;4957873;28;19925;-68
2023/05/07 07:30:22;;;;;;;;;;;19.80;99.90;;;;;;4967116;28;20190;-69
2023/05/07 07:32:48;;;;;;;;;;;19.80;99.90;;;;;;4968760;28;19924;-68
2023/05/07 07:35:14;;;;;;;;;;;19.90;99.90;;;;;;4971468;28;19922;-68
2023/05/07 07:37:39;;;;;;;;;;;19.90;99.90;;;;;;4970752;28;20378;-68
2023/05/07 07:40:05;;;;;;;;;;;19.90;99.90;;;;;;4971450;28;19918;-68
2023/05/07 07:42:31;;;;;;;;;;;19.90;99.90;;;;;;4970375;28;19921;-69
2023/05/07 07:44:57;;;;;;;;;;;19.90;99.90;;;;;;4966096;28;20367;-68
2023/05/07 07:47:22;;;;;;;;;;;19.90;99.90;;;;;;4962594;28;20024;-65
2023/05/07 07:49:48;;;;;;;;;;;20.00;99.90;;;;;;4961407;28;19929;-60
2023/05/07 07:52:13;;;;;;;;;;;20.10;99.90;;;;;;4959847;28;19922;-64
2023/05/07 07:54:39;;;;;;;;;;;20.30;99.90;;;;;;4967881;28;19925;-70
2023/05/07 07:57:04;;;;;;;;;;;20.30;99.90;;;;;;4968199;28;19974;-67
2023/05/07 07:59:30;;;;;;;;;;;20.40;99.90;;;;;;4958301;28;20465;-61
2023/05/07 08:01:56;;;;;;;;;;;20.40;99.90;;;;;;4964537;28;19983;-70
2023/05/07 08:04:22;;;;;;;;;;;20.50;99.90;;;;;;4966811;28;19918;-64
2023/05/07 08:06:48;;;;;;;;;;;20.60;99.90;;;;;;4962936;28;19964;-69
2023/05/07 08:09:13;;;;;;;;;;;20.70;99.90;;;;;;4962365;28;19968;-68
2023/05/07 08:11:39;;;;;;;;;;;20.70;99.90;;;;;;4971769;28;20081;-68
2023/05/07 08:14:04;;;;;;;;;;;20.80;99.90;;;;;;4970244;28;19977;-66
2023/05/07 08:16:30;;;;;;;;;;;20.90;99.90;;;;;;4961752;28;19969;-67
2023/05/07 08:18:55;;;;;;;;;;;20.80;99.90;;;;;;4965820;28;20008;-66
2023/05/07 08:21:22;;;;;;;;;;;20.70;99.90;;;;;;4960795;28;19929;-69
2023/05/07 08:23:47;;;;;;;;;;;20.80;99.90;;;;;;4963413;28;19972;-65
2023/05/07 08:26:12;;;;;;;;;;;20.90;99.90;;;;;;4972078;28;19922;-72
2023/05/07 08:28:39;;;;;;;;;;;20.80;99.90;;;;;;4964778;28;19922;-71
2023/05/07 08:31:05;;;;;;;;;;;20.60;99.90;;;;;;4962784;28;19918;-72
2023/05/07 08:33:30;;;;;;;;;;;20.60;99.90;;;;;;4975161;28;19913;-73
2023/05/07 08:35:56;;;;;;;;;;;20.50;99.90;;;;;;4967375;28;19929;-73
2023/05/07 08:38:21;;;;;;;;;;;20.40;99.90;;;;;;4970558;28;20557;-72
2023/05/07 08:40:47;;;;;;;;;;;20.40;99.90;;;;;;4963367;28;19917;-62
2023/05/07 08:43:13;;;;;;;;;;;20.50;99.90;;;;;;4963702;28;19925;-67
2023/05/07 08:45:39;;;;;;;;;;;20.60;99.90;;;;;;4965605;28;19918;-64
2023/05/07 08:48:08;;;;;;;;;;;20.60;99.90;;;;;;4970524;28;20452;-66
2023/05/07 08:50:35;;;;;;;;;;;20.60;99.90;;;;;;4965984;28;19997;-61
2023/05/07 08:53:02;;;;;;;;;;;20.70;99.90;;;;;;4964801;28;19989;-60
2023/05/07 08:55:28;;;;;;;;;;;20.70;99.90;;;;;;4968769;28;19926;-62
2023/05/07 08:57:53;;;;;;;;;;;20.60;99.90;;;;;;4966561;28;19933;-62
2023/05/07 09:00:19;;;;;;;;;;;20.60;99.90;;;;;;4961853;28;19918;-62
2023/05/07 09:02:45;;;;;;;;;;;20.50;99.90;;;;;;4967431;28;19963;-71
2023/05/07 09:05:10;;;;;;;;;;;20.50;99.90;;;;;;4968467;28;19972;-70
2023/05/07 09:07:36;;;;;;;;;;;20.40;99.90;;;;;;4966064;28;19914;-73
2023/05/07 09:10:05;;;;;;;;;;;20.30;99.90;;;;;;4970932;28;20505;-74
2023/05/07 09:12:31;;;;;;;;;;;20.10;99.90;;;;;;4968344;28;19914;-74
2023/05/07 09:14:56;;;;;;;;;;;20.10;99.90;;;;;;4970919;28;19918;-73
2023/05/07 09:17:22;;;;;;;;;;;20.00;99.90;;;;;;4970430;28;19930;-72
2023/05/07 09:19:47;;;;;;;;;;;20.00;99.90;;;;;;4969888;28;19913;-70
2023/05/07 09:22:13;;;;;;;;;;;20.10;99.90;;;;;;4970974;28;19925;-61
2023/05/07 09:24:39;;;;;;;;;;;20.20;99.90;;;;;;4968804;28;19921;-62
2023/05/07 09:27:05;;;;;;;;;;;20.40;99.90;;;;;;4966421;28;20045;-62
2023/05/07 09:29:35;;;;;;;;;;;20.40;99.90;;;;;;4959754;28;19928;-64
2023/05/07 09:32:09;;;;;;;;;;;20.50;99.90;;;;;;4962881;28;20347;-64
2023/05/07 09:34:36;;;;;;;;;;;20.70;99.90;;;;;;4969639;28;19953;-65
2023/05/07 09:37:02;;;;;;;;;;;20.90;99.90;;;;;;4970638;28;19935;-64
2023/05/07 09:39:38;;;;;;;;;;;21.10;99.90;;;;;;4974334;28;19918;-64
2023/05/07 09:42:04;;;;;;;;;;;21.20;99.90;;;;;;4966181;28;20345;-65
2023/05/07 09:44:31;;;;;;;;;;;21.20;99.90;;;;;;4970225;28;19918;-65
2023/05/07 09:46:59;;;;;;;;;;;21.20;99.90;;;;;;4973419;28;20053;-64
2023/05/07 09:49:29;;;;;;;;;;;21.00;99.90;;;;;;4971976;28;20382;-64
2023/05/07 09:51:56;;;;;;;;;;;20.90;99.90;;;;;;4974370;28;19929;-65
2023/05/07 09:54:22;;;;;;;;;;;20.90;99.90;;;;;;4969056;28;19957;-64
2023/05/07 09:56:51;;;;;;;;;;;20.90;99.90;;;;;;4972928;28;20014;-65
2023/05/07 09:59:17;;;;;;;;;;;20.80;99.90;;;;;;4960960;28;20892;-64
2023/05/07 10:01:43;;;;;;;;;;;20.80;99.90;;;;;;4971420;28;19922;-66
2023/05/07 10:04:10;;;;;;;;;;;20.80;99.90;;;;;;4967851;28;20000;-66
2023/05/07 10:06:35;;;;;;;;;;;20.80;99.90;;;;;;4973047;28;19918;-65
2023/05/07 10:09:01;;;;;;;;;;;20.70;99.90;;;;;;4971910;28;20396;-65
2023/05/07 10:11:27;;;;;;;;;;;20.70;99.90;;;;;;4964119;28;19922;-64
2023/05/07 10:13:53;;;;;;;;;;;20.60;99.90;;;;;;4952069;28;19928;-64
2023/05/07 10:16:19;;;;;;;;;;;20.70;99.90;;;;;;4964918;28;19973;-64
2023/05/07 10:18:45;;;;;;;;;;;20.80;99.90;;;;;;4960756;28;19921;-64
2023/05/07 10:21:15;;;;;;;;;;;20.90;99.90;;;;;;4958801;28;19926;-64
2023/05/07 10:23:41;;;;;;;;;;;20.90;99.90;;;;;;4965353;28;19925;-64
2023/05/07 10:26:07;;;;;;;;;;;20.90;99.90;;;;;;4969638;28;19921;-64
2023/05/07 10:28:35;;;;;;;;;;;20.90;99.90;;;;;;4962457;28;19926;-83
2023/05/07 10:31:04;;;;;;;;;;;21.00;99.90;;;;;;4952054;28;19922;-84
2023/05/07 10:33:30;;;;;;;;;;;21.10;99.90;;;;;;4973252;28;20758;-81
2023/05/07 10:35:58;;;;;;;;;;;21.10;99.90;;;;;;4975726;28;19983;-76
2023/05/07 10:38:25;;;;;;;;;;;21.10;99.90;;;;;;4969689;28;19925;-62
2023/05/07 10:40:50;;;;;;;;;;;21.00;99.90;;;;;;4971627;28;19929;-62
2023/05/07 10:43:16;;;;;;;;;;;21.10;99.90;;;;;;4954752;28;20630;-62
2023/05/07 10:45:41;;;;;;;;;;;21.20;99.90;;;;;;4963843;28;19933;-66
2023/05/07 10:48:10;;;;;;;;;;;21.20;99.90;;;;;;4964408;28;19929;-66
2023/05/07 10:50:36;;;;;;;;;;;21.20;99.90;;;;;;4969350;28;19918;-65
2023/05/07 10:53:20;;;;;;;;;;;21.50;99.90;;;;;;4970431;28;19921;-65
2023/05/07 10:55:49;;;;;;;;;;;21.60;99.90;;;;;;4963845;28;19922;-66
2023/05/07 10:58:21;;;;;;;;;;;21.80;99.90;;;;;;4971799;28;19934;-65
2023/05/07 11:00:47;;;;;;;;;;;22.00;99.90;;;;;;4961428;28;19950;-65
2023/05/07 11:03:14;;;;;;;;;;;22.20;99.90;;;;;;4970078;28;19921;-65
2023/05/07 11:05:40;;;;;;;;;;;22.20;99.90;;;;;;4969225;28;20017;-65
2023/05/07 11:08:06;;;;;;;;;;;22.30;99.90;;;;;;4968390;28;19918;-66
2023/05/07 11:10:47;;;;;;;;;;;22.40;99.10;;;;;;4969857;28;19969;-66
2023/05/07 11:13:14;;;;;;;;;;;22.40;99.90;;;;;;4966228;28;20002;-66
2023/05/07 11:15:41;;;;;;;;;;;22.30;99.90;;;;;;4962670;28;20430;-66
2023/05/07 11:18:07;;;;;;;;;;;22.30;99.70;;;;;;4958377;28;20046;-65
2023/05/07 11:20:45;;;;;;;;;;;22.30;99.10;;;;;;4968707;28;20201;-65
2023/05/07 11:23:38;;;;;;;;;;;22.40;99.90;;;;;;4969392;28;20005;-65
2023/05/07 11:26:04;;;;;;;;;;;22.60;99.90;;;;;;4978009;28;19922;-66
2023/05/07 11:28:30;;;;;;;;;;;22.60;99.90;;;;;;4966093;28;19940;-65
2023/05/07 11:30:56;;;;;;;;;;;22.50;99.90;;;;;;4957064;28;20322;-65
2023/05/07 11:33:22;;;;;;;;;;;22.40;99.90;;;;;;4964812;28;19918;-66
2023/05/07 11:35:48;;;;;;;;;;;22.30;99.90;;;;;;4945396;28;19928;-66
2023/05/07 11:38:13;;;;;;;;;;;22.10;99.90;;;;;;4957234;28;19944;-65
2023/05/07 11:41:08;;;;;;;;;;;22.10;99.90;;;;;;4967200;28;19947;-64
2023/05/07 11:43:35;;;;;;;;;;;22.30;99.90;;;;;;4972506;28;20660;-65
2023/05/07 11:46:07;;;;;;;;;;;22.50;99.90;;;;;;4951250;28;19929;-65
2023/05/07 11:48:32;;;;;;;;;;;22.70;99.90;;;;;;4961179;28;19922;-65
2023/05/07 11:50:58;;;;;;;;;;;22.90;99.90;;;;;;4973099;28;19957;-65
2023/05/07 11:53:27;;;;;;;;;;;22.80;99.90;;;;;;4964381;28;19929;-65
2023/05/07 11:55:54;;;;;;;;;;;22.70;99.90;;;;;;4968838;28;19918;-67
2023/05/07 11:58:21;;;;;;;;;;;22.60;99.90;;;;;;4969005;28;19933;-66
2023/05/07 12:00:50;;;;;;;;;;;22.50;99.90;;;;;;4965867;28;19930;-65
2023/05/07 12:03:15;;;;;;;;;;;22.20;99.90;;;;;;4963482;28;20562;-65
2023/05/07 12:05:41;;;;;;;;;;;22.20;99.90;;;;;;4968278;28;19977;-65
2023/05/07 12:08:07;;;;;;;;;;;22.30;99.90;;;;;;4966405;28;19993;-65
2023/05/07 12:10:33;;;;;;;;;;;22.50;99.90;;;;;;4969078;28;20473;-65
2023/05/07 12:12:58;;;;;;;;;;;22.50;99.90;;;;;;4967720;28;19914;-65
2023/05/07 12:15:24;;;;;;;;;;;22.50;99.90;;;;;;4964255;28;19914;-67
2023/05/07 12:17:50;;;;;;;;;;;22.20;99.80;;;;;;4961947;28;20013;-65
2023/05/07 12:20:16;;;;;;;;;;;22.10;99.80;;;;;;4959405;28;19968;-65
2023/05/07 12:22:42;;;;;;;;;;;22.10;99.80;;;;;;4967901;28;19930;-65
2023/05/07 12:25:08;;;;;;;;;;;22.00;99.10;;;;;;4960798;28;19925;-65
2023/05/07 12:27:36;;;;;;;;;;;22.10;99.90;;;;;;4968317;28;19921;-65
2023/05/07 12:30:02;;;;;;;;;;;22.30;99.90;;;;;;4958260;28;20278;-65
2023/05/07 12:32:28;;;;;;;;;;;22.50;99.90;;;;;;4967254;28;19924;-65
2023/05/07 12:34:53;;;;;;;;;;;22.50;99.90;;;;;;4976827;28;19940;-65
2023/05/07 12:37:23;;;;;;;;;;;22.30;99.10;;;;;;4971325;28;19984;-67
2023/05/07 12:39:49;;;;;;;;;;;22.20;99.80;;;;;;4967163;28;19918;-67
2023/05/07 12:42:15;;;;;;;;;;;22.20;99.90;;;;;;4970995;28;19926;-67
2023/05/07 12:44:41;;;;;;;;;;;22.20;99.90;;;;;;4965463;28;20613;-67
2023/05/07 12:47:07;;;;;;;;;;;22.30;99.90;;;;;;4968580;28;19914;-66
2023/05/07 12:49:34;;;;;;;;;;;22.40;99.10;;;;;;4973737;28;19925;-67
2023/05/07 12:52:00;;;;;;;;;;;22.50;99.40;;;;;;4973629;28;19922;-66
2023/05/07 12:54:29;;;;;;;;;;;22.20;97.90;;;;;;4976778;28;20715;-66
2023/05/07 12:57:05;;;;;;;;;;;22.00;99.80;;;;;;4972909;28;19937;-66
2023/05/07 12:59:31;;;;;;;;;;;21.80;99.90;;;;;;4968443;28;20415;-67
2023/05/07 13:01:56;;;;;;;;;;;21.60;99.90;;;;;;4961447;28;19917;-66
2023/05/07 13:04:24;;;;;;;;;;;21.50;99.90;;;;;;4970350;28;19949;-66
2023/05/07 13:06:50;;;;;;;;;;;21.30;99.80;;;;;;4968855;28;19974;-66
2023/05/07 13:09:15;;;;;;;;;;;21.00;99.90;;;;;;4973446;28;19953;-66
2023/05/07 13:11:41;;;;;;;;;;;20.90;99.90;;;;;;4968718;28;19921;-66
2023/05/07 13:14:06;;;;;;;;;;;20.90;99.90;;;;;;4970427;28;20016;-66
2023/05/07 13:16:32;;;;;;;;;;;20.90;99.90;;;;;;4965951;28;19938;-66
2023/05/07 13:18:58;;;;;;;;;;;20.90;99.90;;;;;;4965713;28;20417;-66
2023/05/07 13:21:23;;;;;;;;;;;20.80;99.90;;;;;;4971300;28;20294;-65
2023/05/07 13:23:49;;;;;;;;;;;20.70;99.90;;;;;;4972349;28;19961;-67
2023/05/07 13:26:14;;;;;;;;;;;20.70;99.90;;;;;;4974568;28;19922;-66
2023/05/07 13:28:40;;;;;;;;;;;20.80;99.90;;;;;;4967180;28;19985;-66
2023/05/07 13:31:05;;;;;;;;;;;21.20;99.90;;;;;;4964924;28;20056;-65
2023/05/07 13:33:31;;;;;;;;;;;21.40;99.90;;;;;;4967735;28;20306;-65
2023/05/07 13:35:56;;;;;;;;;;;21.60;99.30;;;;;;4977650;28;19960;-65
2023/05/07 13:38:22;;;;;;;;;;;21.60;99.90;;;;;;4974958;28;19958;-65
2023/05/07 13:40:47;;;;;;;;;;;21.90;99.90;;;;;;4971411;28;20363;-66
2023/05/07 13:43:14;;;;;;;;;;;22.10;99.50;;;;;;4970814;28;19940;-65
2023/05/07 13:45:39;;;;;;;;;;;22.30;95.90;;;;;;4969009;28;20440;-66
2023/05/07 13:48:05;;;;;;;;;;;22.20;96.80;;;;;;4973639;28;19949;-65
2023/05/07 13:50:31;;;;;;;;;;;22.30;96.40;;;;;;4967856;28;19917;-65
2023/05/07 13:52:56;;;;;;;;;;;22.30;94.20;;;;;;4971019;28;20004;-65
2023/05/07 13:55:23;;;;;;;;;;;22.30;94.30;;;;;;4963906;28;19922;-64
2023/05/07 13:57:54;;;;;;;;;;;22.20;96.20;;;;;;4972786;28;19980;-65
2023/05/07 14:00:20;;;;;;;;;;;22.30;98.00;;;;;;4969292;28;20275;-65
2023/05/07 14:02:45;;;;;;;;;;;22.40;98.50;;;;;;4965226;28;19929;-64
2023/05/07 14:05:13;;;;;;;;;;;22.40;97.70;;;;;;4973946;28;19940;-64
2023/05/07 14:07:38;;;;;;;;;;;22.40;98.20;;;;;;4976262;28;19924;-64
2023/05/07 14:10:04;;;;;;;;;;;22.40;96.80;;;;;;4973063;28;19918;-64